sensor_id;sensor_type;location;lat;lon;timestamp;pressure;altitude;pressure_sealevel;temperature;humidity
46534;BME280;32260;52.008;4.752;2023-04-30T00:02:03;102479.22;;;11.26;56.20
46534;BME280;32260;52.008;4.752;2023-04-30T00:04:29;102475.69;;;11.25;56.54
46534;BME280;32260;52.008;4.752;2023-04-30T00:06:55;102473.94;;;11.24;57.04
46534;BME280;32260;52.008;4.752;2023-04-30T00:09:21;102468.59;;;11.21;57.47
46534;BME280;32260;52.008;4.752;2023-04-30T00:11:48;102466.78;;;11.14;57.42
46534;BME280;32260;52.008;4.752;2023-04-30T00:14:14;102470.31;;;11.10;57.86
46534;BME280;32260;52.008;4.752;2023-04-30T00:16:40;102464.13;;;11.08;58.01
46534;BME280;32260;52.008;4.752;2023-04-30T00:19:06;102459.72;;;11.07;57.34
46534;BME280;32260;52.008;4.752;2023-04-30T00:21:33;102465.91;;;11.10;56.81
46534;BME280;32260;52.008;4.752;2023-04-30T00:23:59;102463.25;;;11.04;57.10
46534;BME280;32260;52.008;4.752;2023-04-30T00:26:25;102463.22;;;11.03;57.08
46534;BME280;32260;52.008;4.752;2023-04-30T00:28:52;102461.47;;;11.02;57.51
46534;BME280;32260;52.008;4.752;2023-04-30T00:31:18;102465.88;;;10.98;57.35
46534;BME280;32260;52.008;4.752;2023-04-30T00:33:44;102468.50;;;10.96;56.40
46534;BME280;32260;52.008;4.752;2023-04-30T00:36:10;102465.84;;;10.96;56.54
46534;BME280;32260;52.008;4.752;2023-04-30T00:38:36;102472.00;;;10.94;57.37
46534;BME280;32260;52.008;4.752;2023-04-30T00:41:02;102470.28;;;11.00;56.42
46534;BME280;32260;52.008;4.752;2023-04-30T00:43:29;102461.47;;;11.02;56.96
46534;BME280;32260;52.008;4.752;2023-04-30T00:45:55;102465.00;;;11.00;56.99
46534;BME280;32260;52.008;4.752;2023-04-30T00:48:21;102470.28;;;11.00;56.97
46534;BME280;32260;52.008;4.752;2023-04-30T00:50:47;102472.91;;;10.97;57.88
46534;BME280;32260;52.008;4.752;2023-04-30T00:53:13;102468.50;;;10.93;56.97
46534;BME280;32260;52.008;4.752;2023-04-30T00:55:40;102477.31;;;10.89;58.11
46534;BME280;32260;52.008;4.752;2023-04-30T00:58:08;102477.28;;;10.86;58.05
46534;BME280;32260;52.008;4.752;2023-04-30T01:00:35;102473.72;;;10.81;57.61
46534;BME280;32260;52.008;4.752;2023-04-30T01:03:01;102477.25;;;10.80;58.31
46534;BME280;32260;52.008;4.752;2023-04-30T01:05:27;102484.31;;;10.78;57.41
46534;BME280;32260;52.008;4.752;2023-04-30T01:07:55;102477.25;;;10.77;58.27
46534;BME280;32260;52.008;4.752;2023-04-30T01:10:27;102479.88;;;10.75;58.33
46534;BME280;32260;52.008;4.752;2023-04-30T01:13:01;102470.13;;;10.73;57.83
46534;BME280;32260;52.008;4.752;2023-04-30T01:15:53;102483.41;;;10.68;58.90
46534;BME280;32260;52.008;4.752;2023-04-30T01:18:24;102491.38;;;10.76;59.36
46534;BME280;32260;52.008;4.752;2023-04-30T01:20:55;102497.47;;;10.61;58.66
46534;BME280;32260;52.008;4.752;2023-04-30T01:24:17;102495.75;;;10.66;58.46
46534;BME280;32260;52.008;4.752;2023-04-30T01:29:06;102489.53;;;10.59;58.88
46534;BME280;32260;52.008;4.752;2023-04-30T01:31:33;102496.56;;;10.59;59.34
46534;BME280;32260;52.008;4.752;2023-04-30T01:33:59;102496.56;;;10.57;58.28
46534;BME280;32260;52.008;4.752;2023-04-30T01:39:49;102489.53;;;10.59;59.32
46534;BME280;32260;52.008;4.752;2023-04-30T01:45:12;102493.88;;;10.54;58.42
46534;BME280;32260;52.008;4.752;2023-04-30T01:53:06;102486.75;;;10.41;58.96
46534;BME280;32260;52.008;4.752;2023-04-30T01:58:15;102488.41;;;10.34;58.74
46534;BME280;32260;52.008;4.752;2023-04-30T02:00:41;102487.50;;;10.27;59.63
46534;BME280;32260;52.008;4.752;2023-04-30T02:03:08;102482.19;;;10.30;58.92
46534;BME280;32260;52.008;4.752;2023-04-30T02:05:34;102485.72;;;10.23;59.07
46534;BME280;32260;52.008;4.752;2023-04-30T02:08:00;102478.69;;;10.28;58.92
46534;BME280;32260;52.008;4.752;2023-04-30T02:10:27;102487.50;;;10.27;59.09
46534;BME280;32260;52.008;4.752;2023-04-30T02:12:54;102483.94;;;10.27;58.79
46534;BME280;32260;52.008;4.752;2023-04-30T02:15:20;102489.22;;;10.25;58.61
46534;BME280;32260;52.008;4.752;2023-04-30T02:17:46;102483.94;;;10.25;58.73
46534;BME280;32260;52.008;4.752;2023-04-30T02:20:12;102481.28;;;10.25;59.35
46534;BME280;32260;52.008;4.752;2023-04-30T02:22:39;102476.84;;;10.24;59.29
46534;BME280;32260;52.008;4.752;2023-04-30T02:25:05;102483.94;;;10.24;59.79
46534;BME280;32260;52.008;4.752;2023-04-30T02:27:32;102490.06;;;10.18;59.58
46534;BME280;32260;52.008;4.752;2023-04-30T02:29:59;102490.91;;;10.14;59.29
46534;BME280;32260;52.008;4.752;2023-04-30T02:32:25;102493.59;;;10.18;60.02
46534;BME280;32260;52.008;4.752;2023-04-30T02:34:52;102498.84;;;10.14;59.12
46534;BME280;32260;52.008;4.752;2023-04-30T02:37:18;102494.41;;;10.10;59.92
46534;BME280;32260;52.008;4.752;2023-04-30T02:39:44;102492.66;;;10.12;59.80
46534;BME280;32260;52.008;4.752;2023-04-30T02:42:10;102493.56;;;10.12;59.66
46534;BME280;32260;52.008;4.752;2023-04-30T02:44:36;102491.78;;;10.11;59.23
46534;BME280;32260;52.008;4.752;2023-04-30T02:47:02;102488.16;;;10.03;60.03
46534;BME280;32260;52.008;4.752;2023-04-30T02:49:29;102486.38;;;10.00;59.98
46534;BME280;32260;52.008;4.752;2023-04-30T02:51:55;102488.16;;;9.98;59.63
46534;BME280;32260;52.008;4.752;2023-04-30T02:54:21;102488.09;;;9.97;59.98
46534;BME280;32260;52.008;4.752;2023-04-30T02:56:47;102478.38;;;9.94;59.95
46534;BME280;32260;52.008;4.752;2023-04-30T02:59:13;102474.84;;;9.92;60.64
46534;BME280;32260;52.008;4.752;2023-04-30T03:01:40;102483.66;;;9.91;60.27
46534;BME280;32260;52.008;4.752;2023-04-30T03:04:06;102478.34;;;9.90;59.98
46534;BME280;32260;52.008;4.752;2023-04-30T03:06:35;102476.59;;;9.90;60.09
46534;BME280;32260;52.008;4.752;2023-04-30T03:09:01;102471.28;;;9.87;59.84
46534;BME280;32260;52.008;4.752;2023-04-30T03:11:27;102467.72;;;9.85;59.77
46534;BME280;32260;52.008;4.752;2023-04-30T03:13:53;102481.81;;;9.84;59.98
46534;BME280;32260;52.008;4.752;2023-04-30T03:16:20;102478.25;;;9.82;60.31
46534;BME280;32260;52.008;4.752;2023-04-30T03:18:47;102480.03;;;9.80;60.56
46534;BME280;32260;52.008;4.752;2023-04-30T03:21:14;102480.91;;;9.79;60.25
46534;BME280;32260;52.008;4.752;2023-04-30T03:23:40;102478.25;;;9.79;60.79
46534;BME280;32260;52.008;4.752;2023-04-30T03:26:06;102485.34;;;9.83;60.40
46534;BME280;32260;52.008;4.752;2023-04-30T03:28:33;102493.28;;;9.83;60.65
46534;BME280;32260;52.008;4.752;2023-04-30T03:31:01;102485.34;;;9.83;60.63
46534;BME280;32260;52.008;4.752;2023-04-30T03:33:31;102481.81;;;9.82;61.47
46534;BME280;32260;52.008;4.752;2023-04-30T03:35:58;102482.69;;;9.80;60.63
46534;BME280;32260;52.008;4.752;2023-04-30T03:38:24;102476.47;;;9.78;60.83
46534;BME280;32260;52.008;4.752;2023-04-30T03:40:50;102473.81;;;9.76;59.52
46534;BME280;32260;52.008;4.752;2023-04-30T03:43:16;102477.31;;;9.74;60.27
46534;BME280;32260;52.008;4.752;2023-04-30T03:45:43;102466.69;;;9.70;60.86
46534;BME280;32260;52.008;4.752;2023-04-30T03:48:09;102475.47;;;9.65;60.98
46534;BME280;32260;52.008;4.752;2023-04-30T03:50:35;102478.06;;;9.60;60.90
46534;BME280;32260;52.008;4.752;2023-04-30T03:53:01;102476.28;;;9.59;61.30
46534;BME280;32260;52.008;4.752;2023-04-30T03:55:27;102483.41;;;9.63;61.42
46534;BME280;32260;52.008;4.752;2023-04-30T03:57:53;102479.84;;;9.60;61.57
46534;BME280;32260;52.008;4.752;2023-04-30T04:00:19;102479.84;;;9.61;60.96
46534;BME280;32260;52.008;4.752;2023-04-30T04:02:45;102477.13;;;9.57;61.37
46534;BME280;32260;52.008;4.752;2023-04-30T04:05:12;102475.34;;;9.52;61.36
46534;BME280;32260;52.008;4.752;2023-04-30T04:07:38;102472.69;;;9.51;61.88
46534;BME280;32260;52.008;4.752;2023-04-30T04:10:04;102478.84;;;9.50;61.30
46534;BME280;32260;52.008;4.752;2023-04-30T04:12:30;102470.84;;;9.47;61.63
46534;BME280;32260;52.008;4.752;2023-04-30T04:14:57;102475.28;;;9.45;61.39
46534;BME280;32260;52.008;4.752;2023-04-30T04:17:23;102471.69;;;9.41;61.12
46534;BME280;32260;52.008;4.752;2023-04-30T04:19:49;102479.63;;;9.39;61.82
46534;BME280;32260;52.008;4.752;2023-04-30T04:22:15;102481.38;;;9.39;60.69
46534;BME280;32260;52.008;4.752;2023-04-30T04:24:41;102478.72;;;9.39;61.18
46534;BME280;32260;52.008;4.752;2023-04-30T04:27:07;102476.06;;;9.37;61.06
46534;BME280;32260;52.008;4.752;2023-04-30T04:29:33;102475.19;;;9.38;61.31
46534;BME280;32260;52.008;4.752;2023-04-30T04:31:59;102474.28;;;9.38;60.99
46534;BME280;32260;52.008;4.752;2023-04-30T04:34:27;102476.94;;;9.38;61.79
46534;BME280;32260;52.008;4.752;2023-04-30T04:36:53;102476.06;;;9.37;61.97
46534;BME280;32260;52.008;4.752;2023-04-30T04:39:19;102480.56;;;9.45;61.49
46534;BME280;32260;52.008;4.752;2023-04-30T04:41:45;102482.34;;;9.47;61.06
46534;BME280;32260;52.008;4.752;2023-04-30T04:44:11;102484.09;;;9.47;61.58
46534;BME280;32260;52.008;4.752;2023-04-30T04:46:37;102497.38;;;9.50;60.96
46534;BME280;32260;52.008;4.752;2023-04-30T04:49:07;102486.78;;;9.50;60.88
46534;BME280;32260;52.008;4.752;2023-04-30T04:51:33;102500.00;;;9.50;61.16
46534;BME280;32260;52.008;4.752;2023-04-30T04:53:59;102486.84;;;9.54;61.72
46534;BME280;32260;52.008;4.752;2023-04-30T04:56:26;102490.38;;;9.58;61.53
46534;BME280;32260;52.008;4.752;2023-04-30T04:58:52;102501.00;;;9.61;61.19
46534;BME280;32260;52.008;4.752;2023-04-30T05:01:18;102492.22;;;9.64;62.19
46534;BME280;32260;52.008;4.752;2023-04-30T05:03:44;102494.00;;;9.65;61.89
46534;BME280;32260;52.008;4.752;2023-04-30T05:06:11;102494.91;;;9.68;61.41
46534;BME280;32260;52.008;4.752;2023-04-30T05:08:37;102492.28;;;9.70;62.04
46534;BME280;32260;52.008;4.752;2023-04-30T05:11:03;102493.22;;;9.75;61.84
46534;BME280;32260;52.008;4.752;2023-04-30T05:13:29;102483.53;;;9.79;62.00
46534;BME280;32260;52.008;4.752;2023-04-30T05:15:56;102484.47;;;9.82;62.32
46534;BME280;32260;52.008;4.752;2023-04-30T05:18:22;102495.97;;;9.86;61.31
46534;BME280;32260;52.008;4.752;2023-04-30T05:20:48;102498.66;;;9.91;62.30
46534;BME280;32260;52.008;4.752;2023-04-30T05:23:14;102497.81;;;9.96;62.39
46534;BME280;32260;52.008;4.752;2023-04-30T05:25:41;102492.56;;;9.99;62.27
46534;BME280;32260;52.008;4.752;2023-04-30T05:28:07;102486.41;;;10.02;62.00
46534;BME280;32260;52.008;4.752;2023-04-30T05:30:33;102493.50;;;10.06;62.06
46534;BME280;32260;52.008;4.752;2023-04-30T05:32:59;102490.00;;;10.10;62.01
46534;BME280;32260;52.008;4.752;2023-04-30T05:35:31;102498.00;;;10.18;62.10
46534;BME280;32260;52.008;4.752;2023-04-30T05:38:20;102490.94;;;10.17;62.52
46534;BME280;32260;52.008;4.752;2023-04-30T05:40:46;102485.66;;;10.18;62.31
46534;BME280;32260;52.008;4.752;2023-04-30T05:43:12;102498.00;;;10.18;63.27
46534;BME280;32260;52.008;4.752;2023-04-30T05:45:39;102493.63;;;10.20;63.00
46534;BME280;32260;52.008;4.752;2023-04-30T05:48:05;102498.94;;;10.25;63.05
46534;BME280;32260;52.008;4.752;2023-04-30T05:50:31;102496.34;;;10.32;63.06
46534;BME280;32260;52.008;4.752;2023-04-30T05:52:57;102502.59;;;10.38;63.28
46534;BME280;32260;52.008;4.752;2023-04-30T05:55:23;102487.63;;;10.43;63.21
46534;BME280;32260;52.008;4.752;2023-04-30T05:57:49;102494.69;;;10.44;63.86
46534;BME280;32260;52.008;4.752;2023-04-30T06:00:15;102494.75;;;10.47;63.01
46534;BME280;32260;52.008;4.752;2023-04-30T06:02:42;102488.53;;;10.46;63.10
46534;BME280;32260;52.008;4.752;2023-04-30T06:05:08;102489.44;;;10.51;62.25
46534;BME280;32260;52.008;4.752;2023-04-30T06:07:34;102484.19;;;10.53;63.21
46534;BME280;32260;52.008;4.752;2023-04-30T06:10:01;102484.19;;;10.56;63.53
46534;BME280;32260;52.008;4.752;2023-04-30T06:12:28;102493.09;;;10.67;63.73
46534;BME280;32260;52.008;4.752;2023-04-30T06:14:54;102486.91;;;10.70;63.23
46534;BME280;32260;52.008;4.752;2023-04-30T06:17:20;102493.16;;;10.77;63.19
46534;BME280;32260;52.008;4.752;2023-04-30T06:19:46;102493.19;;;10.83;63.03
46534;BME280;32260;52.008;4.752;2023-04-30T06:22:12;102499.44;;;10.94;63.24
46534;BME280;32260;52.008;4.752;2023-04-30T06:24:38;102492.38;;;11.03;63.27
46534;BME280;32260;52.008;4.752;2023-04-30T06:27:05;102496.84;;;11.10;63.34
46534;BME280;32260;52.008;4.752;2023-04-30T06:29:31;102500.44;;;11.16;63.26
46534;BME280;32260;52.008;4.752;2023-04-30T06:31:57;102502.22;;;11.22;62.23
46534;BME280;32260;52.008;4.752;2023-04-30T06:34:23;102512.84;;;11.28;62.95
46534;BME280;32260;52.008;4.752;2023-04-30T06:36:49;102503.13;;;11.33;63.37
46534;BME280;32260;52.008;4.752;2023-04-30T06:39:15;102502.28;;;11.39;62.92
46534;BME280;32260;52.008;4.752;2023-04-30T06:41:42;102495.22;;;11.46;62.89
46534;BME280;32260;52.008;4.752;2023-04-30T06:44:08;102509.41;;;11.53;62.37
46534;BME280;32260;52.008;4.752;2023-04-30T06:46:34;102504.97;;;11.59;62.73
46534;BME280;32260;52.008;4.752;2023-04-30T06:49:00;102516.50;;;11.64;63.43
46534;BME280;32260;52.008;4.752;2023-04-30T06:51:26;102515.63;;;11.73;62.97
46534;BME280;32260;52.008;4.752;2023-04-30T06:53:52;102507.66;;;11.81;62.47
46534;BME280;32260;52.008;4.752;2023-04-30T06:56:19;102509.47;;;11.88;62.18
46534;BME280;32260;52.008;4.752;2023-04-30T06:58:46;102511.25;;;11.95;62.64
46534;BME280;32260;52.008;4.752;2023-04-30T07:01:15;102506.84;;;12.02;62.50
46534;BME280;32260;52.008;4.752;2023-04-30T07:03:41;102506.84;;;12.05;62.84
46534;BME280;32260;52.008;4.752;2023-04-30T07:06:07;102505.09;;;12.10;61.83
46534;BME280;32260;52.008;4.752;2023-04-30T07:08:33;102507.72;;;12.12;61.73
46534;BME280;32260;52.008;4.752;2023-04-30T07:10:59;102504.19;;;12.16;62.18
46534;BME280;32260;52.008;4.752;2023-04-30T07:13:26;102505.09;;;12.18;62.51
46534;BME280;32260;52.008;4.752;2023-04-30T07:15:52;102502.44;;;12.23;62.67
46534;BME280;32260;52.008;4.752;2023-04-30T07:18:18;102507.72;;;12.32;62.08
46534;BME280;32260;52.008;4.752;2023-04-30T07:20:44;102500.66;;;12.40;62.54
46534;BME280;32260;52.008;4.752;2023-04-30T07:23:10;102505.03;;;12.52;61.77
46534;BME280;32260;52.008;4.752;2023-04-30T07:25:36;102509.47;;;12.61;62.68
46534;BME280;32260;52.008;4.752;2023-04-30T07:28:02;102515.66;;;12.71;61.87
46534;BME280;32260;52.008;4.752;2023-04-30T07:30:28;102512.09;;;12.78;61.46
46534;BME280;32260;52.008;4.752;2023-04-30T07:32:55;102516.53;;;12.85;61.94
46534;BME280;32260;52.008;4.752;2023-04-30T07:35:21;102506.75;;;12.95;61.36
46534;BME280;32260;52.008;4.752;2023-04-30T07:37:47;102506.72;;;13.03;61.49
46534;BME280;32260;52.008;4.752;2023-04-30T07:40:13;102512.00;;;13.10;61.08
46534;BME280;32260;52.008;4.752;2023-04-30T07:42:40;102507.53;;;13.20;61.42
46534;BME280;32260;52.008;4.752;2023-04-30T07:45:07;102505.72;;;13.29;61.07
46534;BME280;32260;52.008;4.752;2023-04-30T07:47:33;102503.91;;;13.34;61.19
46534;BME280;32260;52.008;4.752;2023-04-30T07:50:00;102504.78;;;13.42;60.47
46534;BME280;32260;52.008;4.752;2023-04-30T07:52:26;102510.06;;;13.51;60.70
46534;BME280;32260;52.008;4.752;2023-04-30T07:54:52;102503.81;;;13.58;60.34
46534;BME280;32260;52.008;4.752;2023-04-30T07:57:18;102499.31;;;13.65;60.88
46534;BME280;32260;52.008;4.752;2023-04-30T07:59:44;102501.94;;;13.73;60.45
46534;BME280;32260;52.008;4.752;2023-04-30T08:02:10;102500.13;;;13.81;60.36
46534;BME280;32260;52.008;4.752;2023-04-30T08:04:36;102501.84;;;13.88;60.31
46534;BME280;32260;52.008;4.752;2023-04-30T08:07:03;102504.44;;;13.96;59.48
46534;BME280;32260;52.008;4.752;2023-04-30T08:09:30;102505.28;;;14.03;59.72
46534;BME280;32260;52.008;4.752;2023-04-30T08:11:56;102508.72;;;14.14;59.93
46534;BME280;32260;52.008;4.752;2023-04-30T08:14:22;102498.88;;;14.24;60.02
46534;BME280;32260;52.008;4.752;2023-04-30T08:16:48;102505.03;;;14.32;59.76
46534;BME280;32260;52.008;4.752;2023-04-30T08:19:14;102504.09;;;14.39;59.33
46534;BME280;32260;52.008;4.752;2023-04-30T08:21:40;102505.81;;;14.47;59.12
46534;BME280;32260;52.008;4.752;2023-04-30T08:24:06;102504.84;;;14.52;59.41
46534;BME280;32260;52.008;4.752;2023-04-30T08:26:32;102503.88;;;14.60;59.16
46534;BME280;32260;52.008;4.752;2023-04-30T08:28:58;102508.31;;;14.67;59.03
46534;BME280;32260;52.008;4.752;2023-04-30T08:31:25;102506.41;;;14.75;58.96
46534;BME280;32260;52.008;4.752;2023-04-30T08:33:51;102509.03;;;14.81;58.46
46534;BME280;32260;52.008;4.752;2023-04-30T08:36:17;102513.41;;;14.87;58.27
46534;BME280;32260;52.008;4.752;2023-04-30T08:38:43;102507.13;;;14.94;58.45
46534;BME280;32260;52.008;4.752;2023-04-30T08:41:12;102501.66;;;15.03;58.18
46534;BME280;32260;52.008;4.752;2023-04-30T08:43:39;102504.25;;;15.10;58.23
46534;BME280;32260;52.008;4.752;2023-04-30T08:46:06;102498.78;;;15.20;58.16
46534;BME280;32260;52.008;4.752;2023-04-30T08:48:33;102496.00;;;15.28;58.14
46534;BME280;32260;52.008;4.752;2023-04-30T08:51:00;102494.97;;;15.39;58.16
46534;BME280;32260;52.008;4.752;2023-04-30T08:53:28;102499.28;;;15.50;58.25
46534;BME280;32260;52.008;4.752;2023-04-30T08:55:54;102497.28;;;15.63;57.94
46534;BME280;32260;52.008;4.752;2023-04-30T08:58:20;102490.91;;;15.75;57.67
46534;BME280;32260;52.008;4.752;2023-04-30T09:00:46;102489.91;;;15.82;56.98
46534;BME280;32260;52.008;4.752;2023-04-30T09:03:13;102488.06;;;15.88;57.11
46534;BME280;32260;52.008;4.752;2023-04-30T09:05:39;102488.81;;;15.96;56.91
46534;BME280;32260;52.008;4.752;2023-04-30T09:08:07;102493.16;;;16.03;57.01
46534;BME280;32260;52.008;4.752;2023-04-30T09:10:34;102493.06;;;16.09;56.38
46534;BME280;32260;52.008;4.752;2023-04-30T09:15:41;102489.34;;;16.18;56.50
46534;BME280;32260;52.008;4.752;2023-04-30T09:18:13;102493.66;;;16.27;56.82
46534;BME280;32260;52.008;4.752;2023-04-30T09:20:54;102496.91;;;16.44;56.29
46534;BME280;32260;52.008;4.752;2023-04-30T09:23:21;102493.28;;;16.47;56.08
46534;BME280;32260;52.008;4.752;2023-04-30T09:25:47;102493.09;;;16.58;55.90
46534;BME280;32260;52.008;4.752;2023-04-30T09:28:14;102489.31;;;16.68;56.10
46534;BME280;32260;52.008;4.752;2023-04-30T09:30:40;102490.88;;;16.78;54.89
46534;BME280;32260;52.008;4.752;2023-04-30T09:33:07;102484.47;;;16.89;54.52
46534;BME280;32260;52.008;4.752;2023-04-30T09:35:35;102486.06;;;16.99;54.61
46534;BME280;32260;52.008;4.752;2023-04-30T09:38:02;102489.47;;;17.07;54.89
46534;BME280;32260;52.008;4.752;2023-04-30T09:40:43;102480.19;;;17.24;54.65
46534;BME280;32260;52.008;4.752;2023-04-30T09:43:10;102483.78;;;17.23;54.46
46534;BME280;32260;52.008;4.752;2023-04-30T09:45:41;102479.19;;;17.28;53.10
46534;BME280;32260;52.008;4.752;2023-04-30T09:48:09;102480.84;;;17.35;53.52
46534;BME280;32260;52.008;4.752;2023-04-30T09:50:39;102478.88;;;17.43;53.88
46534;BME280;32260;52.008;4.752;2023-04-30T09:53:06;102474.31;;;17.47;53.68
46534;BME280;32260;52.008;4.752;2023-04-30T09:55:35;102474.09;;;17.56;53.21
46534;BME280;32260;52.008;4.752;2023-04-30T09:58:06;102464.00;;;17.68;53.25
46534;BME280;32260;52.008;4.752;2023-04-30T10:00:33;102462.13;;;17.71;52.93
46534;BME280;32260;52.008;4.752;2023-04-30T10:03:05;102459.31;;;17.77;52.65
46534;BME280;32260;52.008;4.752;2023-04-30T10:05:36;102466.34;;;17.83;52.32
46534;BME280;32260;52.008;4.752;2023-04-30T10:08:06;102460.81;;;17.88;52.90
46534;BME280;32260;52.008;4.752;2023-04-30T10:10:33;102461.47;;;17.99;53.06
46534;BME280;32260;52.008;4.752;2023-04-30T10:13:03;102454.81;;;18.14;50.59
46534;BME280;32260;52.008;4.752;2023-04-30T10:15:37;102448.28;;;18.26;51.71
46534;BME280;32260;52.008;4.752;2023-04-30T10:18:08;102442.81;;;18.29;51.66
46534;BME280;32260;52.008;4.752;2023-04-30T10:20:36;102456.09;;;18.34;51.71
46534;BME280;32260;52.008;4.752;2023-04-30T10:23:04;102450.50;;;18.43;51.71
46534;BME280;32260;52.008;4.752;2023-04-30T10:25:31;102446.81;;;18.47;51.67
46534;BME280;32260;52.008;4.752;2023-04-30T10:27:58;102446.63;;;18.53;51.74
46534;BME280;32260;52.008;4.752;2023-04-30T10:30:25;102449.97;;;18.62;51.58
46534;BME280;32260;52.008;4.752;2023-04-30T10:35:34;102442.22;;;18.82;50.71
46534;BME280;32260;52.008;4.752;2023-04-30T10:38:29;102432.19;;;18.90;50.93
46534;BME280;32260;52.008;4.752;2023-04-30T10:40:58;102427.50;;;18.97;50.94
46534;BME280;32260;52.008;4.752;2023-04-30T10:43:25;102429.13;;;19.03;49.95
46534;BME280;32260;52.008;4.752;2023-04-30T10:45:52;102422.69;;;19.08;50.56
46534;BME280;32260;52.008;4.752;2023-04-30T10:48:22;102425.91;;;19.20;50.55
46534;BME280;32260;52.008;4.752;2023-04-30T10:50:54;102417.59;;;19.29;49.86
46534;BME280;32260;52.008;4.752;2023-04-30T10:53:21;102414.78;;;19.32;49.75
46534;BME280;32260;52.008;4.752;2023-04-30T10:56:04;102417.00;;;19.46;49.83
46534;BME280;32260;52.008;4.752;2023-04-30T10:58:34;102407.16;;;19.47;49.69
46534;BME280;32260;52.008;4.752;2023-04-30T11:01:03;102398.91;;;19.53;49.43
46534;BME280;32260;52.008;4.752;2023-04-30T11:03:30;102400.41;;;19.62;49.67
46534;BME280;32260;52.008;4.752;2023-04-30T11:05:58;102397.50;;;19.68;48.44
46534;BME280;32260;52.008;4.752;2023-04-30T11:08:36;102396.13;;;19.83;48.93
46534;BME280;32260;52.008;4.752;2023-04-30T11:11:03;102396.09;;;19.84;49.12
46534;BME280;32260;52.008;4.752;2023-04-30T11:13:46;102386.66;;;19.98;47.84
46534;BME280;32260;52.008;4.752;2023-04-30T11:16:16;102388.38;;;20.00;48.59
46534;BME280;32260;52.008;4.752;2023-04-30T11:18:44;102390.72;;;20.10;48.71
46534;BME280;32260;52.008;4.752;2023-04-30T11:21:11;102383.31;;;20.16;48.07
46534;BME280;32260;52.008;4.752;2023-04-30T11:23:41;102379.06;;;20.34;47.89
46534;BME280;32260;52.008;4.752;2023-04-30T11:26:09;102380.38;;;20.48;47.13
46534;BME280;32260;52.008;4.752;2023-04-30T11:28:36;102379.84;;;20.62;47.48
46534;BME280;32260;52.008;4.752;2023-04-30T11:31:03;102375.03;;;20.72;47.16
46534;BME280;32260;52.008;4.752;2023-04-30T11:33:30;102362.25;;;20.77;45.48
46534;BME280;32260;52.008;4.752;2023-04-30T11:35:58;102370.97;;;20.83;45.74
46534;BME280;32260;52.008;4.752;2023-04-30T11:38:28;102368.00;;;20.91;46.27
46534;BME280;32260;52.008;4.752;2023-04-30T11:40:56;102349.91;;;20.95;43.60
46534;BME280;32260;52.008;4.752;2023-04-30T11:46:04;102351.09;;;21.10;44.55
46534;BME280;32260;52.008;4.752;2023-04-30T11:48:34;102343.44;;;21.21;44.54
46534;BME280;32260;52.008;4.752;2023-04-30T11:51:04;102337.59;;;21.32;45.00
46534;BME280;32260;52.008;4.752;2023-04-30T11:53:31;102342.53;;;21.43;44.10
46534;BME280;32260;52.008;4.752;2023-04-30T11:56:02;102339.59;;;21.49;42.05
46534;BME280;32260;52.008;4.752;2023-04-30T11:58:33;102334.94;;;21.53;44.47
46534;BME280;32260;52.008;4.752;2023-04-30T12:01:00;102331.22;;;21.55;44.01
46534;BME280;32260;52.008;4.752;2023-04-30T12:03:26;102324.78;;;21.59;43.83
46534;BME280;32260;52.008;4.752;2023-04-30T12:05:52;102329.81;;;21.69;43.65
46534;BME280;32260;52.008;4.752;2023-04-30T12:08:19;102325.66;;;21.80;44.23
46534;BME280;32260;52.008;4.752;2023-04-30T12:10:45;102328.78;;;21.92;42.75
46534;BME280;32260;52.008;4.752;2023-04-30T12:13:14;102324.66;;;22.04;41.93
46534;BME280;32260;52.008;4.752;2023-04-30T12:15:41;102318.16;;;22.08;42.63
46534;BME280;32260;52.008;4.752;2023-04-30T12:18:12;102317.63;;;22.20;42.43
46534;BME280;32260;52.008;4.752;2023-04-30T12:20:39;102312.22;;;22.20;41.39
46534;BME280;32260;52.008;4.752;2023-04-30T12:23:07;102317.50;;;22.23;42.16
46534;BME280;32260;52.008;4.752;2023-04-30T12:25:40;102310.41;;;22.21;41.06
46534;BME280;32260;52.008;4.752;2023-04-30T12:28:09;102308.44;;;22.24;42.55
46534;BME280;32260;52.008;4.752;2023-04-30T12:30:36;102306.44;;;22.28;41.91
46534;BME280;32260;52.008;4.752;2023-04-30T12:33:02;102305.38;;;22.32;41.22
46534;BME280;32260;52.008;4.752;2023-04-30T12:35:29;102302.44;;;22.37;41.47
46534;BME280;32260;52.008;4.752;2023-04-30T12:38:02;102297.59;;;22.45;41.23
46534;BME280;32260;52.008;4.752;2023-04-30T12:40:29;102301.25;;;22.44;39.72
46534;BME280;32260;52.008;4.752;2023-04-30T12:43:05;102290.69;;;22.58;40.99
46534;BME280;32260;52.008;4.752;2023-04-30T12:45:51;102284.25;;;22.61;40.75
46534;BME280;32260;52.008;4.752;2023-04-30T12:48:21;102281.19;;;22.69;40.95
46534;BME280;32260;52.008;4.752;2023-04-30T12:50:53;102277.22;;;22.76;40.98
46534;BME280;32260;52.008;4.752;2023-04-30T12:53:20;102277.75;;;22.84;40.64
46534;BME280;32260;52.008;4.752;2023-04-30T12:56:07;102282.16;;;23.04;38.54
46534;BME280;32260;52.008;4.752;2023-04-30T12:58:34;102282.56;;;23.14;39.79
46534;BME280;32260;52.008;4.752;2023-04-30T13:01:00;102270.34;;;23.24;38.70
46534;BME280;32260;52.008;4.752;2023-04-30T13:03:27;102273.53;;;23.33;38.57
46534;BME280;32260;52.008;4.752;2023-04-30T13:05:53;102268.59;;;23.41;38.51
46534;BME280;32260;52.008;4.752;2023-04-30T13:08:19;102270.38;;;23.42;38.91
46534;BME280;32260;52.008;4.752;2023-04-30T13:10:46;102264.78;;;23.45;39.55
46534;BME280;32260;52.008;4.752;2023-04-30T13:13:14;102265.34;;;23.52;39.93
46534;BME280;32260;52.008;4.752;2023-04-30T13:15:42;102263.09;;;23.60;37.81
46534;BME280;32260;52.008;4.752;2023-04-30T13:18:08;102253.72;;;23.67;37.97
46534;BME280;32260;52.008;4.752;2023-04-30T13:20:35;102253.63;;;23.69;37.40